Time;durP1;ratioP1;P1;durP2;ratioP2;P2;SDS_P1;SDS_P2;PMS_P1;PMS_P2;Temp;Humidity;BMP_temperature;BMP_pressure;BME280_temperature;BME280_humidity;BME280_pressure;Samples;Min_cycle;Max_cycle;Signal;HPM_P1;HPM_P2
2023/09/30 00:00:08;;;;;;;0.50;0.50;;;;;;;;;;5009126;28;20064;-79
2023/09/30 00:02:34;;;;;;;0.50;0.50;;;;;;;;;;5010131;28;20041;-80
2023/09/30 00:05:00;;;;;;;0.93;0.70;;;;;;;;;;5010192;28;20022;-80
2023/09/30 00:07:26;;;;;;;0.50;0.50;;;;;;;;;;5009135;28;20033;-79
2023/09/30 00:09:52;;;;;;;0.77;0.77;;;;;;;;;;5009599;28;20025;-79
2023/09/30 00:12:18;;;;;;;0.50;0.50;;;;;;;;;;5009493;28;20029;-80
2023/09/30 00:14:45;;;;;;;0.60;0.60;;;;;;;;;;5009263;28;20044;-80
2023/09/30 00:17:11;;;;;;;0.60;0.60;;;;;;;;;;5009180;28;20032;-79
2023/09/30 00:19:37;;;;;;;0.50;0.50;;;;;;;;;;5008386;28;20022;-80
2023/09/30 00:22:03;;;;;;;0.50;0.50;;;;;;;;;;5008702;28;20049;-79
2023/09/30 00:24:30;;;;;;;0.50;0.50;;;;;;;;;;5009169;28;20489;-79
2023/09/30 00:26:56;;;;;;;0.70;0.70;;;;;;;;;;5007780;28;20025;-79
2023/09/30 00:29:22;;;;;;;0.50;0.50;;;;;;;;;;5005936;28;20021;-79
2023/09/30 00:31:48;;;;;;;0.60;0.60;;;;;;;;;;5006007;28;20037;-80
2023/09/30 00:34:14;;;;;;;0.60;0.60;;;;;;;;;;5008476;28;20030;-79
2023/09/30 00:36:41;;;;;;;0.50;0.50;;;;;;;;;;5009354;28;20026;-79
2023/09/30 00:39:08;;;;;;;0.50;0.50;;;;;;;;;;5008847;28;20136;-79
2023/09/30 00:41:34;;;;;;;0.60;0.60;;;;;;;;;;5009310;28;20026;-79
2023/09/30 00:44:00;;;;;;;0.60;0.60;;;;;;;;;;5010296;28;20018;-80
2023/09/30 00:46:30;;;;;;;0.60;0.60;;;;;;;;;;5009996;28;20018;-80
2023/09/30 00:48:58;;;;;;;0.50;0.50;;;;;;;;;;5009215;28;20026;-80
2023/09/30 00:51:25;;;;;;;0.60;0.60;;;;;;;;;;5009699;28;20058;-80
2023/09/30 00:53:52;;;;;;;0.50;0.50;;;;;;;;;;5009985;28;20037;-80
2023/09/30 00:56:20;;;;;;;0.50;0.50;;;;;;;;;;5009764;28;20018;-80
2023/09/30 00:58:46;;;;;;;0.52;0.52;;;;;;;;;;5010028;28;20022;-80
2023/09/30 01:01:13;;;;;;;0.60;0.60;;;;;;;;;;5010079;28;20393;-80
2023/09/30 01:03:39;;;;;;;0.50;0.50;;;;;;;;;;5009936;28;20090;-80
2023/09/30 01:06:05;;;;;;;0.60;0.60;;;;;;;;;;5010752;28;20022;-80
2023/09/30 01:08:34;;;;;;;0.60;0.60;;;;;;;;;;5010823;28;20022;-80
2023/09/30 01:11:00;;;;;;;0.63;0.60;;;;;;;;;;5009520;28;20037;-80
2023/09/30 01:13:36;;;;;;;0.63;0.60;;;;;;;;;;5010150;28;20030;-80
2023/09/30 01:16:06;;;;;;;0.90;0.90;;;;;;;;;;5008162;28;20106;-80
2023/09/30 01:18:33;;;;;;;0.55;0.55;;;;;;;;;;5026385;28;20022;-80
2023/09/30 01:21:03;;;;;;;0.60;0.60;;;;;;;;;;5008548;28;20026;-79
2023/09/30 01:23:29;;;;;;;0.63;0.63;;;;;;;;;;5008712;28;20018;-81
2023/09/30 01:25:55;;;;;;;0.70;0.70;;;;;;;;;;5008234;28;20026;-80
2023/09/30 01:28:22;;;;;;;0.50;0.50;;;;;;;;;;5012193;28;20013;-80
2023/09/30 01:30:49;;;;;;;0.60;0.60;;;;;;;;;;5016851;28;20121;-80
2023/09/30 01:33:18;;;;;;;0.57;0.57;;;;;;;;;;5010534;28;20022;-79
2023/09/30 01:35:45;;;;;;;0.70;0.70;;;;;;;;;;5007556;28;20018;-80
2023/09/30 01:38:11;;;;;;;0.73;0.70;;;;;;;;;;5007749;28;20101;-80
2023/09/30 01:40:37;;;;;;;0.50;0.50;;;;;;;;;;5007129;28;20374;-81
2023/09/30 01:43:04;;;;;;;0.60;0.60;;;;;;;;;;5008175;28;20026;-80
2023/09/30 01:45:30;;;;;;;0.50;0.50;;;;;;;;;;5007257;28;20018;-80
2023/09/30 01:47:56;;;;;;;0.60;0.60;;;;;;;;;;5007365;28;20477;-80
2023/09/30 01:50:22;;;;;;;0.60;0.60;;;;;;;;;;5008025;28;20026;-80
2023/09/30 01:52:48;;;;;;;0.60;0.60;;;;;;;;;;5007954;28;20025;-79
2023/09/30 01:55:14;;;;;;;0.60;0.60;;;;;;;;;;5007983;28;20029;-80
2023/09/30 01:57:41;;;;;;;0.50;0.50;;;;;;;;;;5008100;28;20029;-80
2023/09/30 02:00:12;;;;;;;0.50;0.50;;;;;;;;;;5008630;28;20026;-80
2023/09/30 02:02:38;;;;;;;0.60;0.60;;;;;;;;;;5008489;28;20033;-80
2023/09/30 02:05:07;;;;;;;0.50;0.50;;;;;;;;;;5006631;28;20101;-80
2023/09/30 02:07:34;;;;;;;0.50;0.50;;;;;;;;;;5006934;28;20026;-80
2023/09/30 02:10:01;;;;;;;0.57;0.57;;;;;;;;;;5007898;28;20033;-80
2023/09/30 02:12:30;;;;;;;0.55;0.55;;;;;;;;;;5011282;28;20042;-80
2023/09/30 02:14:58;;;;;;;0.70;0.65;;;;;;;;;;5015888;28;20057;-79
2023/09/30 02:17:25;;;;;;;0.60;0.60;;;;;;;;;;5009086;28;20097;-79
2023/09/30 02:19:53;;;;;;;0.75;0.70;;;;;;;;;;5007460;28;20029;-80
2023/09/30 02:22:19;;;;;;;0.55;0.55;;;;;;;;;;5007451;28;20018;-80
2023/09/30 02:24:45;;;;;;;0.60;0.60;;;;;;;;;;5007237;28;20026;-81
2023/09/30 02:27:11;;;;;;;0.65;0.60;;;;;;;;;;5007797;28;20026;-80
2023/09/30 02:29:37;;;;;;;0.70;0.70;;;;;;;;;;5007546;28;20028;-80
2023/09/30 02:32:04;;;;;;;0.60;0.60;;;;;;;;;;5006818;28;20038;-80
2023/09/30 02:34:31;;;;;;;0.70;0.70;;;;;;;;;;5006593;28;20474;-81
2023/09/30 02:36:59;;;;;;;0.60;0.60;;;;;;;;;;5007236;28;20079;-80
2023/09/30 02:39:26;;;;;;;0.50;0.50;;;;;;;;;;5006732;28;20054;-80
2023/09/30 02:41:52;;;;;;;0.60;0.60;;;;;;;;;;5007222;28;20176;-80
2023/09/30 02:44:18;;;;;;;0.50;0.50;;;;;;;;;;5007357;28;20026;-80
2023/09/30 02:46:44;;;;;;;0.60;0.60;;;;;;;;;;5006944;28;20040;-81
2023/09/30 02:49:11;;;;;;;0.50;0.50;;;;;;;;;;5006231;28;20026;-81
2023/09/30 02:51:37;;;;;;;0.70;0.70;;;;;;;;;;5008288;28;20034;-80
2023/09/30 02:54:04;;;;;;;0.65;0.57;;;;;;;;;;5009922;28;20476;-81
2023/09/30 02:56:30;;;;;;;0.50;0.50;;;;;;;;;;5010049;28;20112;-81
2023/09/30 02:58:59;;;;;;;0.50;0.50;;;;;;;;;;5009662;28;20033;-81
2023/09/30 03:01:26;;;;;;;0.50;0.50;;;;;;;;;;5011685;28;20044;-81
2023/09/30 03:03:52;;;;;;;0.50;0.50;;;;;;;;;;5011377;28;20424;-80
2023/09/30 03:06:19;;;;;;;0.60;0.60;;;;;;;;;;5010694;28;20044;-80
2023/09/30 03:08:46;;;;;;;0.50;0.50;;;;;;;;;;5010945;28;20025;-80
2023/09/30 03:11:12;;;;;;;0.40;0.40;;;;;;;;;;5010435;28;20367;-80
2023/09/30 03:13:42;;;;;;;0.60;0.60;;;;;;;;;;5010059;28;20108;-80
2023/09/30 03:16:09;;;;;;;0.60;0.60;;;;;;;;;;5009161;28;20033;-79
2023/09/30 03:18:35;;;;;;;0.50;0.50;;;;;;;;;;5009359;28;20022;-80
2023/09/30 03:21:02;;;;;;;0.55;0.55;;;;;;;;;;5009838;28;20033;-80
2023/09/30 03:23:30;;;;;;;0.40;0.40;;;;;;;;;;5010579;28;20089;-80
2023/09/30 03:26:00;;;;;;;0.60;0.60;;;;;;;;;;5010185;28;20049;-80
2023/09/30 03:28:27;;;;;;;0.50;0.50;;;;;;;;;;5009560;28;20034;-79
2023/09/30 03:30:53;;;;;;;0.50;0.50;;;;;;;;;;5008930;28;20029;-81
2023/09/30 03:33:19;;;;;;;0.60;0.60;;;;;;;;;;5009449;28;20068;-79
2023/09/30 03:35:45;;;;;;;0.60;0.60;;;;;;;;;;5008950;28;20026;-79
2023/09/30 03:38:12;;;;;;;0.60;0.60;;;;;;;;;;5008258;28;20025;-79
2023/09/30 03:40:39;;;;;;;0.60;0.60;;;;;;;;;;5007854;28;20068;-79
2023/09/30 03:43:05;;;;;;;0.60;0.60;;;;;;;;;;5008438;28;20022;-81
2023/09/30 03:45:36;;;;;;;0.60;0.60;;;;;;;;;;5007696;28;20359;-81
2023/09/30 03:48:03;;;;;;;0.60;0.60;;;;;;;;;;5008158;28;20369;-79
2023/09/30 03:50:30;;;;;;;0.50;0.50;;;;;;;;;;5010031;28;20102;-79
2023/09/30 03:53:09;;;;;;;0.60;0.60;;;;;;;;;;5008334;28;20038;-79
2023/09/30 03:55:36;;;;;;;0.50;0.50;;;;;;;;;;5008830;28;20040;-79
2023/09/30 03:58:04;;;;;;;0.50;0.50;;;;;;;;;;5008849;28;20481;-79
2023/09/30 04:00:30;;;;;;;0.52;0.52;;;;;;;;;;5009807;28;20056;-79
2023/09/30 04:02:59;;;;;;;0.52;0.52;;;;;;;;;;5009834;28;20037;-81
2023/09/30 04:05:29;;;;;;;0.50;0.50;;;;;;;;;;5011368;28;20375;-80
2023/09/30 04:07:55;;;;;;;0.50;0.50;;;;;;;;;;5010805;28;20476;-79
2023/09/30 04:10:25;;;;;;;0.60;0.60;;;;;;;;;;5008344;28;20033;-79
2023/09/30 04:12:52;;;;;;;0.52;0.50;;;;;;;;;;5008777;28;20025;-80
2023/09/30 04:15:18;;;;;;;0.60;0.60;;;;;;;;;;5013335;28;20026;-81
2023/09/30 04:17:44;;;;;;;0.50;0.50;;;;;;;;;;5018661;28;20033;-82
2023/09/30 04:20:15;;;;;;;0.57;0.57;;;;;;;;;;5018725;28;20107;-80
2023/09/30 04:22:46;;;;;;;0.60;0.60;;;;;;;;;;5015501;28;20026;-79
2023/09/30 04:25:12;;;;;;;0.50;0.50;;;;;;;;;;5009711;28;20022;-79
2023/09/30 04:27:38;;;;;;;0.50;0.50;;;;;;;;;;5010410;28;20022;-79
2023/09/30 04:30:08;;;;;;;0.80;0.80;;;;;;;;;;5010692;28;20084;-79
2023/09/30 04:32:36;;;;;;;0.60;0.60;;;;;;;;;;5011040;28;20022;-79
2023/09/30 04:35:03;;;;;;;0.60;0.60;;;;;;;;;;5010990;28;20086;-79
2023/09/30 04:37:29;;;;;;;0.70;0.70;;;;;;;;;;5010692;28;20030;-79
2023/09/30 04:39:55;;;;;;;0.60;0.60;;;;;;;;;;5027421;28;20117;-80
2023/09/30 04:42:25;;;;;;;0.70;0.70;;;;;;;;;;5010805;28;20387;-79
2023/09/30 04:44:51;;;;;;;0.60;0.60;;;;;;;;;;5010486;28;20445;-80
2023/09/30 04:47:18;;;;;;;0.60;0.60;;;;;;;;;;5011800;28;20018;-80
2023/09/30 04:49:45;;;;;;;0.50;0.50;;;;;;;;;;5015053;28;20022;-80
2023/09/30 04:52:11;;;;;;;0.60;0.60;;;;;;;;;;5013041;28;20034;-79
2023/09/30 04:54:37;;;;;;;0.50;0.50;;;;;;;;;;5010133;28;20028;-80
2023/09/30 04:57:03;;;;;;;0.50;0.50;;;;;;;;;;5009720;28;20048;-80
2023/09/30 04:59:29;;;;;;;0.43;0.43;;;;;;;;;;5009843;28;20029;-80
2023/09/30 05:01:56;;;;;;;0.60;0.60;;;;;;;;;;5011322;28;20036;-79
2023/09/30 05:04:25;;;;;;;0.60;0.60;;;;;;;;;;5026871;28;20022;-79
2023/09/30 05:06:52;;;;;;;0.55;0.55;;;;;;;;;;5009958;28;20026;-79
2023/09/30 05:09:18;;;;;;;0.50;0.50;;;;;;;;;;5010162;28;20046;-80
2023/09/30 05:11:44;;;;;;;0.60;0.60;;;;;;;;;;5008545;28;20569;-79
2023/09/30 05:14:10;;;;;;;0.73;0.70;;;;;;;;;;5015621;28;20028;-82
2023/09/30 05:16:36;;;;;;;0.60;0.60;;;;;;;;;;5015494;28;20029;-80
2023/09/30 05:19:12;;;;;;;0.50;0.50;;;;;;;;;;5015378;28;20084;-80
2023/09/30 05:21:38;;;;;;;0.60;0.60;;;;;;;;;;5016385;28;20057;-80
2023/09/30 05:24:05;;;;;;;0.50;0.50;;;;;;;;;;5013493;28;20022;-79
2023/09/30 05:26:32;;;;;;;0.60;0.60;;;;;;;;;;5009683;28;20022;-81
2023/09/30 05:28:59;;;;;;;0.60;0.60;;;;;;;;;;5008812;28;20033;-79
2023/09/30 05:31:25;;;;;;;0.50;0.50;;;;;;;;;;5007629;28;20034;-79
2023/09/30 05:33:51;;;;;;;0.50;0.50;;;;;;;;;;5027375;28;20026;-79
2023/09/30 05:36:18;;;;;;;0.50;0.50;;;;;;;;;;5010681;28;20125;-80
2023/09/30 05:38:45;;;;;;;0.60;0.60;;;;;;;;;;5010950;28;20030;-79
2023/09/30 05:41:13;;;;;;;0.60;0.60;;;;;;;;;;5010328;28;20053;-79
2023/09/30 05:43:39;;;;;;;0.60;0.60;;;;;;;;;;5016529;28;20037;-80
2023/09/30 05:46:07;;;;;;;1.35;1.25;;;;;;;;;;5016072;28;20022;-79
2023/09/30 05:48:33;;;;;;;0.50;0.50;;;;;;;;;;5013344;28;20022;-81
2023/09/30 05:50:59;;;;;;;0.60;0.60;;;;;;;;;;5013173;28;20034;-79
2023/09/30 05:53:27;;;;;;;0.65;0.65;;;;;;;;;;5009160;28;20026;-79
2023/09/30 05:55:53;;;;;;;0.57;0.57;;;;;;;;;;5009833;28;20026;-79
2023/09/30 05:58:20;;;;;;;0.70;0.70;;;;;;;;;;5009367;28;20030;-80
2023/09/30 06:00:48;;;;;;;0.60;0.60;;;;;;;;;;5011872;28;20093;-80
2023/09/30 06:03:14;;;;;;;0.60;0.60;;;;;;;;;;5011039;28;20032;-79
2023/09/30 06:05:41;;;;;;;0.82;0.80;;;;;;;;;;5009673;28;20584;-80
2023/09/30 06:08:10;;;;;;;0.57;0.57;;;;;;;;;;5007651;28;20022;-79
2023/09/30 06:10:42;;;;;;;0.50;0.50;;;;;;;;;;5009384;28;20057;-79
2023/09/30 06:13:08;;;;;;;0.40;0.40;;;;;;;;;;5008004;28;20116;-81
2023/09/30 06:15:39;;;;;;;0.50;0.50;;;;;;;;;;5008075;28;20026;-80
2023/09/30 06:18:06;;;;;;;0.57;0.57;;;;;;;;;;5008678;28;20184;-79
2023/09/30 06:20:33;;;;;;;0.52;0.52;;;;;;;;;;5009636;28;20076;-79
2023/09/30 06:23:00;;;;;;;0.50;0.50;;;;;;;;;;5009211;28;20045;-81
2023/09/30 06:25:27;;;;;;;0.50;0.50;;;;;;;;;;5009762;28;20045;-79
2023/09/30 06:27:57;;;;;;;0.60;0.60;;;;;;;;;;5011846;28;20428;-79
2023/09/30 06:30:29;;;;;;;0.50;0.50;;;;;;;;;;5009917;28;20116;-79
2023/09/30 06:32:55;;;;;;;;;;;;;;;;;;5009717;28;20097;-80
2023/09/30 06:35:23;;;;;;;0.50;0.50;;;;;;;;;;5011438;28;19913;-80
2023/09/30 06:37:49;;;;;;;0.50;0.50;;;;;;;;;;5011417;28;20033;-80
2023/09/30 06:40:15;;;;;;;0.60;0.60;;;;;;;;;;5011058;28;20048;-80
2023/09/30 06:42:42;;;;;;;0.50;0.50;;;;;;;;;;5010090;28;20030;-81
2023/09/30 06:45:09;;;;;;;0.50;0.50;;;;;;;;;;5009981;28;20029;-79
2023/09/30 06:47:36;;;;;;;0.50;0.50;;;;;;;;;;5010326;28;20089;-81
2023/09/30 06:50:09;;;;;;;0.50;0.50;;;;;;;;;;5009724;28;20045;-80
2023/09/30 06:52:35;;;;;;;0.50;0.50;;;;;;;;;;5010869;28;20114;-79
2023/09/30 06:55:04;;;;;;;0.50;0.50;;;;;;;;;;5015057;28;20149;-80
2023/09/30 06:57:32;;;;;;;0.50;0.50;;;;;;;;;;5028183;28;20018;-79
2023/09/30 06:59:58;;;;;;;0.50;0.50;;;;;;;;;;5010472;28;20033;-79
2023/09/30 07:02:24;;;;;;;0.70;0.70;;;;;;;;;;5009591;28;20033;-81
2023/09/30 07:04:51;;;;;;;0.60;0.60;;;;;;;;;;5011318;28;20113;-80
2023/09/30 07:07:17;;;;;;;0.60;0.60;;;;;;;;;;5012215;28;20069;-81
2023/09/30 07:09:44;;;;;;;0.70;0.70;;;;;;;;;;5013116;28;20026;-81
2023/09/30 07:12:13;;;;;;;0.50;0.50;;;;;;;;;;5012913;28;20097;-81
2023/09/30 07:15:04;;;;;;;0.50;0.50;;;;;;;;;;4974288;29;20038;-83
2023/09/30 07:17:57;;;;;;;0.40;0.40;;;;;;;;;;4972534;29;20047;-82
2023/09/30 07:20:46;;;;;;;0.50;0.50;;;;;;;;;;4953865;29;20032;-81
2023/09/30 07:23:22;;;;;;;0.50;0.50;;;;;;;;;;4952238;29;20044;-83
2023/09/30 07:25:50;;;;;;;0.50;0.50;;;;;;;;;;4921831;29;20032;-83
2023/09/30 07:28:58;;;;;;;0.50;0.50;;;;;;;;;;4904798;29;20047;-81
2023/09/30 07:31:50;;;;;;;0.50;0.50;;;;;;;;;;4916976;29;20032;-83
2023/09/30 07:34:24;;;;;;;0.50;0.50;;;;;;;;;;4915804;29;20032;-81
2023/09/30 07:36:58;;;;;;;0.50;0.50;;;;;;;;;;4886195;29;20036;-82
2023/09/30 07:39:35;;;;;;;0.50;0.50;;;;;;;;;;4921055;29;20055;-81
2023/09/30 07:42:10;;;;;;;0.50;0.50;;;;;;;;;;4920174;29;20079;-82
2023/09/30 07:44:46;;;;;;;0.50;0.50;;;;;;;;;;4903866;29;20044;-81
2023/09/30 07:47:15;;;;;;;0.50;0.50;;;;;;;;;;4904056;29;20036;-81
2023/09/30 07:50:18;;;;;;;0.47;0.47;;;;;;;;;;4938365;29;20071;-84
2023/09/30 07:59:03;;;;;;;0.50;0.50;;;;;;;;;;4915312;29;19909;-83
2023/09/30 08:08:35;;;;;;;0.50;0.50;;;;;;;;;;4885775;29;20041;-82
2023/09/30 08:11:43;;;;;;;0.50;0.50;;;;;;;;;;4878557;29;20044;-83
2023/09/30 08:15:03;;;;;;;0.50;0.50;;;;;;;;;;4871129;29;20011;-85
2023/09/30 08:30:38;;;;;;;0.50;0.50;;;;;;;;;;4793430;30;20070;-85
2023/09/30 08:33:22;;;;;;;0.40;0.40;;;;;;;;;;4791032;30;20066;-83
2023/09/30 08:39:43;;;;;;;0.50;0.50;;;;;;;;;;4757467;30;20035;-83
2023/09/30 08:43:10;;;;;;;0.40;0.40;;;;;;;;;;4786316;29;20027;-84
2023/09/30 08:55:38;;;;;;;0.50;0.50;;;;;;;;;;4810908;30;20072;-87
2023/09/30 08:58:42;;;;;;;0.50;0.50;;;;;;;;;;4865646;29;20026;-86
2023/09/30 09:01:53;;;;;;;0.45;0.45;;;;;;;;;;4829003;29;20049;-86
2023/09/30 09:04:43;;;;;;;0.40;0.40;;;;;;;;;;4846921;29;20034;-85
2023/09/30 09:08:03;;;;;;;0.40;0.40;;;;;;;;;;4845952;29;20034;-85
2023/09/30 09:11:20;;;;;;;0.50;0.50;;;;;;;;;;4846844;29;20018;-87
2023/09/30 09:29:29;;;;;;;0.30;0.30;;;;;;;;;;4808816;30;20055;-81
2023/09/30 09:32:11;;;;;;;0.40;0.40;;;;;;;;;;4821016;29;20075;-79
2023/09/30 09:35:00;;;;;;;0.40;0.40;;;;;;;;;;4822527;29;20038;-80
2023/09/30 09:37:32;;;;;;;0.40;0.40;;;;;;;;;;4841520;29;20034;-81
2023/09/30 09:39:59;;;;;;;0.30;0.30;;;;;;;;;;4895171;29;20037;-81
2023/09/30 09:43:04;;;;;;;0.40;0.40;;;;;;;;;;4891714;29;20036;-83
2023/09/30 09:45:32;;;;;;;0.50;0.50;;;;;;;;;;4911743;29;20029;-81
2023/09/30 09:48:00;;;;;;;0.30;0.30;;;;;;;;;;4910452;29;20029;-82
2023/09/30 09:50:27;;;;;;;1.55;0.60;;;;;;;;;;4896668;29;20040;-81
2023/09/30 09:52:59;;;;;;;0.30;0.30;;;;;;;;;;4910615;29;20036;-80
2023/09/30 09:55:25;;;;;;;0.30;0.30;;;;;;;;;;4903866;29;20401;-80
2023/09/30 09:57:52;;;;;;;0.35;0.35;;;;;;;;;;4908858;29;20036;-79
2023/09/30 10:00:20;;;;;;;0.70;0.70;;;;;;;;;;4906807;29;20033;-79
2023/09/30 10:02:47;;;;;;;0.40;0.40;;;;;;;;;;4907341;29;20092;-79
2023/09/30 10:11:09;;;;;;;0.30;0.30;;;;;;;;;;4873302;29;20101;-82
2023/09/30 10:26:20;;;;;;;0.30;0.30;;;;;;;;;;4954540;29;20034;-86
2023/09/30 10:35:50;;;;;;;0.40;0.40;;;;;;;;;;4939491;29;20031;-85
2023/09/30 11:07:23;;;;;;;0.38;0.38;;;;;;;;;;4927173;29;20063;-87
2023/09/30 11:16:17;;;;;;;0.20;0.20;;;;;;;;;;4914308;29;20047;-84
2023/09/30 11:22:07;;;;;;;0.20;0.20;;;;;;;;;;4934672;29;20035;-86
2023/09/30 11:25:19;;;;;;;0.30;0.30;;;;;;;;;;4879271;29;20110;-84
2023/09/30 11:34:38;;;;;;;0.30;0.30;;;;;;;;;;4862758;29;20033;-85
2023/09/30 11:58:35;;;;;;;0.20;0.20;;;;;;;;;;5098353;28;20039;-87
2023/09/30 12:01:02;;;;;;;0.20;0.20;;;;;;;;;;5079154;28;20111;-86
2023/09/30 12:03:28;;;;;;;0.20;0.20;;;;;;;;;;5062629;28;20031;-84
2023/09/30 12:06:01;;;;;;;0.20;0.20;;;;;;;;;;5080310;28;20107;-83
2023/09/30 12:08:27;;;;;;;0.20;0.20;;;;;;;;;;5079712;28;20474;-86
2023/09/30 12:10:53;;;;;;;0.20;0.20;;;;;;;;;;5079100;28;20032;-84
2023/09/30 12:13:19;;;;;;;0.20;0.20;;;;;;;;;;5078882;28;20026;-86
2023/09/30 12:15:46;;;;;;;0.20;0.20;;;;;;;;;;5078800;28;20024;-87
2023/09/30 12:18:16;;;;;;;0.20;0.20;;;;;;;;;;5079172;28;20084;-86
2023/09/30 12:20:44;;;;;;;0.20;0.20;;;;;;;;;;5079230;28;20536;-86
2023/09/30 12:23:10;;;;;;;0.20;0.20;;;;;;;;;;5078039;28;20051;-85
2023/09/30 12:25:37;;;;;;;0.20;0.20;;;;;;;;;;5078743;28;20024;-85
2023/09/30 12:28:03;;;;;;;0.20;0.20;;;;;;;;;;5079333;28;20459;-86
2023/09/30 12:30:31;;;;;;;0.20;0.20;;;;;;;;;;5080189;28;20028;-87
2023/09/30 12:32:58;;;;;;;0.20;0.20;;;;;;;;;;5082024;28;20360;-85
2023/09/30 12:35:24;;;;;;;0.20;0.20;;;;;;;;;;5080078;28;20024;-82
2023/09/30 12:37:51;;;;;;;0.20;0.20;;;;;;;;;;5079682;28;20016;-86
2023/09/30 12:40:17;;;;;;;0.10;0.10;;;;;;;;;;5080508;28;20081;-87
2023/09/30 12:42:44;;;;;;;0.20;0.20;;;;;;;;;;5085352;28;20055;-85
2023/09/30 12:45:12;;;;;;;0.20;0.20;;;;;;;;;;5087121;28;20074;-84
2023/09/30 12:47:38;;;;;;;0.20;0.20;;;;;;;;;;5078719;28;20016;-84
2023/09/30 12:50:04;;;;;;;0.20;0.20;;;;;;;;;;5078064;28;20048;-86
2023/09/30 12:52:32;;;;;;;0.20;0.20;;;;;;;;;;5078557;28;20020;-85
2023/09/30 12:54:58;;;;;;;0.20;0.20;;;;;;;;;;5078118;28;20031;-84
2023/09/30 12:57:25;;;;;;;0.20;0.20;;;;;;;;;;5078127;28;20027;-86
2023/09/30 12:59:53;;;;;;;0.20;0.20;;;;;;;;;;5078876;28;20046;-84
2023/09/30 13:02:20;;;;;;;0.20;0.20;;;;;;;;;;5078335;28;20040;-83
2023/09/30 13:04:47;;;;;;;0.20;0.20;;;;;;;;;;5078016;28;20032;-84
2023/09/30 13:07:13;;;;;;;0.20;0.20;;;;;;;;;;5078092;28;20059;-84
2023/09/30 13:09:40;;;;;;;0.20;0.20;;;;;;;;;;5078091;28;20047;-86
2023/09/30 13:12:06;;;;;;;0.20;0.20;;;;;;;;;;5077830;28;20032;-85
2023/09/30 13:14:32;;;;;;;0.20;0.20;;;;;;;;;;5078042;28;20027;-84
2023/09/30 13:16:59;;;;;;;0.20;0.20;;;;;;;;;;5078034;28;20021;-85
2023/09/30 13:19:25;;;;;;;0.20;0.20;;;;;;;;;;5078314;28;20016;-84
2023/09/30 13:21:52;;;;;;;0.20;0.20;;;;;;;;;;5077910;28;20024;-85
2023/09/30 13:24:22;;;;;;;0.20;0.20;;;;;;;;;;5077459;28;20106;-84
2023/09/30 13:26:52;;;;;;;0.20;0.20;;;;;;;;;;5077156;28;20081;-87
2023/09/30 13:29:18;;;;;;;0.20;0.20;;;;;;;;;;5077802;28;20069;-84
2023/09/30 13:31:45;;;;;;;0.10;0.10;;;;;;;;;;5076771;28;20031;-87
2023/09/30 13:34:14;;;;;;;0.20;0.20;;;;;;;;;;5082586;28;20028;-86
2023/09/30 13:36:40;;;;;;;0.45;0.20;;;;;;;;;;5094043;28;20422;-85
2023/09/30 13:39:06;;;;;;;0.10;0.10;;;;;;;;;;5094080;28;20038;-86
2023/09/30 13:41:36;;;;;;;0.10;0.10;;;;;;;;;;5053031;28;20029;-87
2023/09/30 13:44:02;;;;;;;0.20;0.20;;;;;;;;;;5036740;28;20032;-85
2023/09/30 13:49:13;;;;;;;0.20;0.20;;;;;;;;;;5060052;28;20426;-86
2023/09/30 13:54:59;;;;;;;0.20;0.20;;;;;;;;;;5060953;28;20130;-80
2023/09/30 14:53:19;;;;;;;0.28;0.28;;;;;;;;;;5027823;28;20076;-89
2023/09/30 14:59:44;;;;;;;0.20;0.20;;;;;;;;;;4990749;28;20128;-85
2023/09/30 15:09:14;;;;;;;0.30;0.30;;;;;;;;;;4940530;29;20262;-86
2023/09/30 15:12:23;;;;;;;0.30;0.30;;;;;;;;;;4939065;29;20017;-87
2023/09/30 15:15:28;;;;;;;0.20;0.20;;;;;;;;;;4846631;29;20136;-86
2023/09/30 15:18:53;;;;;;;0.20;0.20;;;;;;;;;;4864086;29;20010;-86
2023/09/30 15:28:13;;;;;;;0.20;0.20;;;;;;;;;;4843559;29;20022;-87
2023/09/30 15:31:30;;;;;;;0.20;0.20;;;;;;;;;;4824165;29;20058;-87
2023/09/30 15:37:56;;;;;;;0.20;0.20;;;;;;;;;;4834854;29;20045;-86
2023/09/30 15:44:18;;;;;;;0.30;0.30;;;;;;;;;;4887905;29;20054;-83
2023/09/30 16:06:06;;;;;;;0.28;0.28;;;;;;;;;;4877264;29;20025;-85
2023/09/30 16:12:25;;;;;;;0.30;0.30;;;;;;;;;;4875475;29;20078;-85
2023/09/30 16:15:30;;;;;;;0.30;0.30;;;;;;;;;;4857801;29;20037;-86
2023/09/30 16:27:43;;;;;;;0.30;0.30;;;;;;;;;;4842215;29;20041;-86
2023/09/30 16:31:00;;;;;;;0.30;0.30;;;;;;;;;;4763951;30;20593;-85
2023/09/30 16:34:11;;;;;;;0.30;0.30;;;;;;;;;;4770991;30;20024;-83
2023/09/30 16:43:41;;;;;;;0.30;0.30;;;;;;;;;;4773291;30;20038;-86
2023/09/30 16:50:04;;;;;;;0.38;0.38;;;;;;;;;;4826196;29;20060;-87
2023/09/30 16:52:58;;;;;;;0.30;0.30;;;;;;;;;;4814898;29;20042;-88
2023/09/30 16:56:05;;;;;;;0.30;0.30;;;;;;;;;;4818197;29;20056;-87
2023/09/30 16:59:28;;;;;;;0.30;0.30;;;;;;;;;;4820178;29;20034;-87
2023/09/30 17:02:37;;;;;;;0.30;0.30;;;;;;;;;;4772162;30;20140;-87
2023/09/30 17:05:24;;;;;;;0.30;0.30;;;;;;;;;;4767758;30;20044;-85
2023/09/30 17:10:59;;;;;;;0.75;0.73;;;;;;;;;;4805315;29;20073;-86
2023/09/30 17:13:44;;;;;;;0.30;0.30;;;;;;;;;;4838892;29;20041;-84
2023/09/30 17:19:56;;;;;;;0.30;0.30;;;;;;;;;;4786960;30;20070;-86
2023/09/30 17:23:05;;;;;;;0.35;0.35;;;;;;;;;;4749943;30;20039;-86
2023/09/30 17:26:18;;;;;;;0.30;0.30;;;;;;;;;;4749677;30;20060;-85
2023/09/30 17:29:08;;;;;;;0.30;0.30;;;;;;;;;;4679659;30;20045;-85
2023/09/30 17:35:18;;;;;;;0.40;0.40;;;;;;;;;;4701151;30;20037;-86
2023/09/30 17:38:28;;;;;;;0.35;0.35;;;;;;;;;;4750843;30;20071;-85
2023/09/30 17:41:57;;;;;;;0.40;0.40;;;;;;;;;;4766846;30;20050;-87
2023/09/30 17:44:59;;;;;;;0.47;0.47;;;;;;;;;;4798622;29;20047;-88
2023/09/30 17:54:39;;;;;;;0.30;0.30;;;;;;;;;;4840156;29;20108;-85
2023/09/30 17:57:48;;;;;;;0.35;0.35;;;;;;;;;;4821717;29;20101;-86
2023/09/30 18:01:18;;;;;;;0.30;0.30;;;;;;;;;;4841114;29;20035;-85
2023/09/30 18:04:29;;;;;;;0.40;0.40;;;;;;;;;;4772665;29;20173;-85
2023/09/30 18:07:43;;;;;;;0.40;0.40;;;;;;;;;;4768377;30;20043;-84
2023/09/30 18:10:50;;;;;;;0.30;0.30;;;;;;;;;;4805932;30;20031;-86
2023/09/30 18:16:43;;;;;;;0.40;0.40;;;;;;;;;;4733086;30;20060;-84
2023/09/30 18:23:17;;;;;;;0.40;0.40;;;;;;;;;;4803280;30;20077;-84
2023/09/30 18:32:31;;;;;;;0.30;0.30;;;;;;;;;;4852650;29;20127;-85
2023/09/30 18:35:35;;;;;;;0.30;0.30;;;;;;;;;;4833567;29;20035;-87
2023/09/30 18:38:32;;;;;;;0.43;0.43;;;;;;;;;;4819435;29;20147;-83
2023/09/30 18:41:31;;;;;;;0.40;0.40;;;;;;;;;;4803800;30;20059;-85
2023/09/30 18:44:26;;;;;;;0.30;0.30;;;;;;;;;;4802701;29;20039;-85
2023/09/30 18:47:14;;;;;;;0.30;0.30;;;;;;;;;;4782594;30;20072;-86
2023/09/30 18:50:26;;;;;;;0.40;0.40;;;;;;;;;;4762888;30;20079;-84
2023/09/30 18:52:56;;;;;;;0.30;0.30;;;;;;;;;;4778238;30;20090;-83
2023/09/30 18:59:03;;;;;;;0.40;0.40;;;;;;;;;;4801898;29;20042;-85
2023/09/30 19:01:59;;;;;;;0.40;0.40;;;;;;;;;;4803475;30;20035;-85
2023/09/30 19:04:35;;;;;;;0.40;0.40;;;;;;;;;;4787982;30;20031;-83
2023/09/30 19:07:37;;;;;;;0.40;0.40;;;;;;;;;;4785083;30;20111;-86
2023/09/30 19:10:09;;;;;;;0.35;0.35;;;;;;;;;;4796119;30;20048;-85
2023/09/30 19:13:11;;;;;;;0.30;0.30;;;;;;;;;;4791224;29;20045;-84
2023/09/30 19:15:59;;;;;;;0.40;0.40;;;;;;;;;;4835711;29;20045;-82
2023/09/30 19:18:51;;;;;;;0.40;0.40;;;;;;;;;;4876197;29;20030;-81
2023/09/30 19:28:13;;;;;;;0.40;0.40;;;;;;;;;;4935042;29;20035;-84
2023/09/30 19:31:08;;;;;;;0.50;0.50;;;;;;;;;;4931411;29;20044;-86
2023/09/30 19:33:42;;;;;;;0.40;0.40;;;;;;;;;;4878929;29;20395;-85
2023/09/30 19:36:50;;;;;;;0.55;0.55;;;;;;;;;;4918608;29;20033;-85
2023/09/30 19:51:43;;;;;;;0.50;0.50;;;;;;;;;;4862612;29;20060;-87
2023/09/30 19:55:06;;;;;;;0.40;0.40;;;;;;;;;;4922530;29;20032;-87
2023/09/30 19:58:13;;;;;;;0.65;0.65;;;;;;;;;;4921309;29;20031;-85
2023/09/30 20:04:27;;;;;;;0.40;0.40;;;;;;;;;;4864984;29;20075;-84
2023/09/30 20:10:44;;;;;;;0.40;0.40;;;;;;;;;;4892106;29;20020;-84
2023/09/30 20:16:47;;;;;;;0.40;0.40;;;;;;;;;;4827244;29;20046;-85
2023/09/30 20:19:16;;;;;;;0.40;0.40;;;;;;;;;;4790429;30;20116;-84
2023/09/30 20:22:19;;;;;;;0.40;0.40;;;;;;;;;;4791533;30;20012;-85
2023/09/30 20:25:48;;;;;;;0.40;0.40;;;;;;;;;;4721155;30;20053;-83
2023/09/30 20:31:56;;;;;;;0.50;0.50;;;;;;;;;;4774301;30;20027;-84
2023/09/30 20:47:02;;;;;;;0.40;0.40;;;;;;;;;;4773839;30;20080;-84
2023/09/30 20:50:31;;;;;;;0.40;0.40;;;;;;;;;;4780793;30;20045;-84
2023/09/30 20:56:45;;;;;;;0.40;0.40;;;;;;;;;;4757834;30;20019;-84
2023/09/30 21:03:28;;;;;;;0.50;0.50;;;;;;;;;;4774493;30;20039;-86
2023/09/30 21:06:44;;;;;;;0.40;0.40;;;;;;;;;;4773988;30;20028;-86
2023/09/30 21:12:36;;;;;;;0.40;0.40;;;;;;;;;;4696550;30;20049;-84
2023/09/30 21:18:37;;;;;;;0.43;0.43;;;;;;;;;;4669660;30;20076;-84
2023/09/30 21:21:32;;;;;;;0.40;0.40;;;;;;;;;;4659752;30;20042;-84
2023/09/30 21:30:36;;;;;;;0.50;0.50;;;;;;;;;;4675126;30;20029;-84
2023/09/30 21:33:27;;;;;;;0.40;0.40;;;;;;;;;;4653118;30;20086;-83
2023/09/30 21:36:34;;;;;;;0.40;0.40;;;;;;;;;;4678002;30;20095;-84
2023/09/30 21:39:38;;;;;;;0.43;0.43;;;;;;;;;;4718912;30;20063;-85
2023/09/30 21:42:48;;;;;;;0.40;0.40;;;;;;;;;;4737955;30;20063;-84
2023/09/30 21:46:11;;;;;;;0.55;0.55;;;;;;;;;;4751466;29;20073;-83
2023/09/30 21:48:55;;;;;;;;;;;;;;;;;;4848659;29;20066;-84
2023/09/30 21:51:49;;;;;;;0.60;0.60;;;;;;;;;;4866284;29;19919;-85